Monday, November 20, 2017, 4:22 AM EST

KSBY, Salisbury-wicomico Cty Reg

Location: Salisbury, MD, United States Lat: 38.333
Local Time: 4:22 AM EST ( 9:22 GMT) Lon: -75.5
Time Zone: US/Eastern Elev: 52 ft

Show me the last for .
Show Decoded

2017-11-20 03:54 METAR KSBY 200854Z AUTO 30011KT 10SM SCT060 06/M04 A3004 RMK AO2 SLP175
                 T00561039 51023 =
2017-11-20 02:54 METAR KSBY 200754Z AUTO 30012G22KT 10SM OVC060 06/M03 A3004 RMK AO2 SLP172
                 T00611033 =
2017-11-20 01:54 METAR KSBY 200654Z AUTO 29011G17KT 10SM BKN065 06/M02 A3001 RMK AO2 SLP164
                 T00611017 =
2017-11-20 00:54 METAR KSBY 200554Z AUTO 27008KT 10SM BKN070 05/M02 A2997 RMK AO2 SLP151
                 T00501017 10078 20033 51017 =
2017-11-19 23:54 METAR KSBY 200454Z AUTO 27007KT 10SM CLR 06/M02 A2996 RMK AO2 SLP146 T00561017
                 401890033 =
2017-11-19 22:54 METAR KSBY 200354Z AUTO 26005KT 10SM FEW070 04/M02 A2994 RMK AO2 SLP142
                 T00391022 =
2017-11-19 21:54 METAR KSBY 200254Z 26005KT 10SM FEW055 05/M03 A2992 RMK AO2 SLP135 T00501028
                 51024 =
2017-11-19 20:54 METAR KSBY 200154Z 29008KT 10SM OVC070 07/M04 A2990 RMK AO2 SLP128 T00721039 =
2017-11-19 19:54 METAR KSBY 200054Z 29014G20KT 10SM OVC070 08/M04 A2989 RMK AO2 SLP122 T00781044
                 =
2017-11-19 18:54 METAR KSBY 192354Z 30009G17KT 10SM CLR 07/M03 A2985 RMK AO2 SLP111 T00721028
                 10122 20072 51040 =
2017-11-19 17:54 METAR KSBY 192254Z 31014G22KT 10SM CLR 08/M03 A2982 RMK AO2 PK WND 28028/2219
                 SLP099 T00781028 =
2017-11-19 16:54 METAR KSBY 192154Z 30011G21KT 10SM CLR 08/M02 A2978 RMK AO2 PK WND 29030/2110
                 SLP086 T00831022 =
2017-11-19 15:54 METAR KSBY 192054Z 29014G28KT 10SM CLR 10/M01 A2973 RMK AO2 PK WND 32029/2006
                 SLP071 T01001011 53026 =
2017-11-19 14:54 METAR KSBY 191954Z 31018G27KT 10SM CLR 12/M01 A2969 RMK AO2 PK WND 30031/1913
                 SLP056 T01171006 =
2017-11-19 13:54 METAR KSBY 191854Z 30017G26KT 10SM CLR 12/00 A2967 RMK AO2 PK WND 31031/1812
                 SLP049 T01170000 =
2017-11-19 12:54 METAR KSBY 191754Z 28021G30KT 10SM CLR 12/01 A2966 RMK AO2 PK WND 28031/1714
                 SLP045 T01170011 10156 20106 50011 =
2017-11-19 11:54 METAR KSBY 191654Z 29017G28KT 10SM CLR 12/01 A2966 RMK AO2 PK WND 29033/1635
                 SLP045 T01170011 =
2017-11-19 10:54 METAR KSBY 191554Z 30020G30KT 10SM CLR 12/01 A2965 RMK AO2 PK WND 29033/1518
                 SLP043 T01170011 =
2017-11-19 09:54 METAR KSBY 191454Z 29017G30KT 10SM CLR 11/02 A2963 RMK AO2 PK WND 30031/1444
                 SLP034 T01110017 51064 =
2017-11-19 08:54 METAR KSBY 191354Z 30015G32KT 10SM CLR 11/02 A2960 RMK AO2 PK WND 29036/1315
                 SLP024 T01110017 =
2017-11-19 07:54 METAR KSBY 191254Z 29022G39KT 10SM FEW046 FEW060 SCT080 12/03 A2954 RMK AO2 PK
                 WND 29039/1247 WSHFT 1209 SLP004 T01170033 =
2017-11-19 07:29 METAR KSBY 191229Z 30017G30KT 10SM FEW031 BKN055 OVC080 13/06 A2950 RMK AO2 PK
                 WND 27032/1214 WSHFT 1209 T01280056 =
2017-11-19 06:54 METAR KSBY 191154Z 24016G24KT 10SM FEW015 BKN033 OVC075 15/14 A2943 RMK AO2 PK
                 WND 22027/1114 RAE53 SLP969 P0002 60006 70006 T01500139 10189 20150 53012 =
2017-11-19 05:54 METAR KSBY 191054Z 21018G24KT 7SM RA FEW035 BKN080 OVC095 15/14 A2941 RMK AO2 PK
                 WND 21029/1011 SLP962 P0004 T01500139 =
2017-11-19 04:54 METAR KSBY 190954Z AUTO 21020G29KT 10SM -RA OVC085 17/13 A2939 RMK AO2 PK WND
                 22033/0902 RAB46 SLP953 P0000 T01670128 =

Support USWX by starting your Amazon purchase here.